sensor_id;sensor_type;location;lat;lon;timestamp;temperature;humidity
71291;DHT22;59073;51.994;4.448;2023-06-22T00:01:18;19.13;80.15
71291;DHT22;59073;51.994;4.448;2023-06-22T00:03:44;19.20;80.03
71291;DHT22;59073;51.994;4.448;2023-06-22T00:06:09;19.33;79.31
71291;DHT22;59073;51.994;4.448;2023-06-22T00:08:35;19.37;78.44
71291;DHT22;59073;51.994;4.448;2023-06-22T00:11:00;19.20;78.82
71291;DHT22;59073;51.994;4.448;2023-06-22T00:13:26;19.20;79.47
71291;DHT22;59073;51.994;4.448;2023-06-22T00:15:51;19.32;79.55
71291;DHT22;59073;51.994;4.448;2023-06-22T00:18:17;19.42;78.93
71291;DHT22;59073;51.994;4.448;2023-06-22T00:20:43;19.32;78.98
71291;DHT22;59073;51.994;4.448;2023-06-22T00:23:10;19.29;79.00
71291;DHT22;59073;51.994;4.448;2023-06-22T00:25:37;19.11;79.26
71291;DHT22;59073;51.994;4.448;2023-06-22T00:28:03;18.96;79.87
71291;DHT22;59073;51.994;4.448;2023-06-22T00:30:31;18.81;80.56
71291;DHT22;59073;51.994;4.448;2023-06-22T00:32:57;18.74;80.89
71291;DHT22;59073;51.994;4.448;2023-06-22T00:35:23;18.74;81.30
71291;DHT22;59073;51.994;4.448;2023-06-22T00:37:55;18.78;81.24
71291;DHT22;59073;51.994;4.448;2023-06-22T00:40:30;18.78;81.40
71291;DHT22;59073;51.994;4.448;2023-06-22T00:42:56;18.78;82.25
71291;DHT22;59073;51.994;4.448;2023-06-22T00:45:23;18.78;82.74
71291;DHT22;59073;51.994;4.448;2023-06-22T00:47:56;18.76;82.62
71291;DHT22;59073;51.994;4.448;2023-06-22T00:50:25;18.67;82.56
71291;DHT22;59073;51.994;4.448;2023-06-22T00:52:53;18.78;82.14
71291;DHT22;59073;51.994;4.448;2023-06-22T00:55:22;18.87;81.45
71291;DHT22;59073;51.994;4.448;2023-06-22T00:57:48;18.95;81.15
71291;DHT22;59073;51.994;4.448;2023-06-22T01:00:15;18.88;81.13
71291;DHT22;59073;51.994;4.448;2023-06-22T01:02:45;18.99;80.66
71291;DHT22;59073;51.994;4.448;2023-06-22T01:05:13;18.98;80.30
71291;DHT22;59073;51.994;4.448;2023-06-22T01:10:48;18.99;80.10
71291;DHT22;59073;51.994;4.448;2023-06-22T01:16:41;18.67;80.29
71291;DHT22;59073;51.994;4.448;2023-06-22T01:19:35;18.44;80.36
71291;DHT22;59073;51.994;4.448;2023-06-22T01:22:03;18.47;81.00
71291;DHT22;59073;51.994;4.448;2023-06-22T01:27:53;18.48;81.64
71291;DHT22;59073;51.994;4.448;2023-06-22T01:30:24;18.47;82.04
71291;DHT22;59073;51.994;4.448;2023-06-22T01:32:53;18.48;82.20
71291;DHT22;59073;51.994;4.448;2023-06-22T01:35:20;18.55;81.93
71291;DHT22;59073;51.994;4.448;2023-06-22T01:37:46;18.68;81.33
71291;DHT22;59073;51.994;4.448;2023-06-22T01:40:13;18.72;80.84
71291;DHT22;59073;51.994;4.448;2023-06-22T01:42:41;18.72;80.31
71291;DHT22;59073;51.994;4.448;2023-06-22T01:45:10;18.74;80.57
71291;DHT22;59073;51.994;4.448;2023-06-22T01:47:36;18.72;80.74
71291;DHT22;59073;51.994;4.448;2023-06-22T01:50:02;18.54;81.06
71291;DHT22;59073;51.994;4.448;2023-06-22T01:52:27;18.12;82.63
71291;DHT22;59073;51.994;4.448;2023-06-22T01:54:53;18.09;82.95
71291;DHT22;59073;51.994;4.448;2023-06-22T01:57:19;18.20;82.54
71291;DHT22;59073;51.994;4.448;2023-06-22T01:59:55;18.13;82.20
71291;DHT22;59073;51.994;4.448;2023-06-22T02:02:22;18.23;82.48
71291;DHT22;59073;51.994;4.448;2023-06-22T02:04:59;18.38;81.96
71291;DHT22;59073;51.994;4.448;2023-06-22T02:07:31;18.38;81.02
71291;DHT22;59073;51.994;4.448;2023-06-22T02:09:59;18.27;80.31
71291;DHT22;59073;51.994;4.448;2023-06-22T02:12:29;18.37;80.20
71291;DHT22;59073;51.994;4.448;2023-06-22T02:14:56;18.36;80.58
71291;DHT22;59073;51.994;4.448;2023-06-22T02:17:23;18.45;80.46
71291;DHT22;59073;51.994;4.448;2023-06-22T02:19:49;18.48;80.29
71291;DHT22;59073;51.994;4.448;2023-06-22T02:22:14;18.41;79.87
71291;DHT22;59073;51.994;4.448;2023-06-22T02:24:40;18.20;79.66
71291;DHT22;59073;51.994;4.448;2023-06-22T02:27:05;18.02;79.89
71291;DHT22;59073;51.994;4.448;2023-06-22T02:29:32;18.00;79.95
71291;DHT22;59073;51.994;4.448;2023-06-22T02:31:57;17.99;79.75
71291;DHT22;59073;51.994;4.448;2023-06-22T02:34:23;17.82;80.21
71291;DHT22;59073;51.994;4.448;2023-06-22T02:36:50;17.87;80.79
71291;DHT22;59073;51.994;4.448;2023-06-22T02:39:23;17.92;81.02
71291;DHT22;59073;51.994;4.448;2023-06-22T02:41:53;18.03;81.97
71291;DHT22;59073;51.994;4.448;2023-06-22T02:44:19;18.20;81.86
71291;DHT22;59073;51.994;4.448;2023-06-22T02:46:45;18.10;82.62
71291;DHT22;59073;51.994;4.448;2023-06-22T02:49:10;18.14;82.22
71291;DHT22;59073;51.994;4.448;2023-06-22T02:51:41;18.04;81.34
71291;DHT22;59073;51.994;4.448;2023-06-22T02:54:06;17.93;82.40
71291;DHT22;59073;51.994;4.448;2023-06-22T02:56:32;17.89;82.76
71291;DHT22;59073;51.994;4.448;2023-06-22T02:58:57;17.80;82.50
71291;DHT22;59073;51.994;4.448;2023-06-22T03:01:27;17.72;82.50
71291;DHT22;59073;51.994;4.448;2023-06-22T03:03:53;17.68;83.74
71291;DHT22;59073;51.994;4.448;2023-06-22T03:06:20;17.79;83.77
71291;DHT22;59073;51.994;4.448;2023-06-22T03:08:51;17.87;82.96
71291;DHT22;59073;51.994;4.448;2023-06-22T03:11:16;17.90;83.39
71291;DHT22;59073;51.994;4.448;2023-06-22T03:13:43;18.02;83.09
71291;DHT22;59073;51.994;4.448;2023-06-22T03:16:08;18.02;82.94
71291;DHT22;59073;51.994;4.448;2023-06-22T03:18:34;18.20;82.34
71291;DHT22;59073;51.994;4.448;2023-06-22T03:20:59;18.21;82.29
71291;DHT22;59073;51.994;4.448;2023-06-22T03:23:27;18.14;82.26
71291;DHT22;59073;51.994;4.448;2023-06-22T03:25:52;17.79;83.60
71291;DHT22;59073;51.994;4.448;2023-06-22T03:28:21;17.89;83.56
71291;DHT22;59073;51.994;4.448;2023-06-22T03:30:46;17.94;83.26
71291;DHT22;59073;51.994;4.448;2023-06-22T03:33:12;17.92;83.34
71291;DHT22;59073;51.994;4.448;2023-06-22T03:35:37;17.79;83.51
71291;DHT22;59073;51.994;4.448;2023-06-22T03:38:03;17.92;83.61
71291;DHT22;59073;51.994;4.448;2023-06-22T03:40:29;18.03;83.37
71291;DHT22;59073;51.994;4.448;2023-06-22T03:42:55;18.10;83.06
71291;DHT22;59073;51.994;4.448;2023-06-22T03:45:21;18.16;82.85
71291;DHT22;59073;51.994;4.448;2023-06-22T03:47:46;18.16;82.96
71291;DHT22;59073;51.994;4.448;2023-06-22T03:50:11;18.16;82.77
71291;DHT22;59073;51.994;4.448;2023-06-22T03:52:37;18.04;83.43
71291;DHT22;59073;51.994;4.448;2023-06-22T03:55:03;18.21;83.20
71291;DHT22;59073;51.994;4.448;2023-06-22T03:57:28;18.37;82.64
71291;DHT22;59073;51.994;4.448;2023-06-22T03:59:56;18.43;82.44
71291;DHT22;59073;51.994;4.448;2023-06-22T04:02:22;18.54;82.17
71291;DHT22;59073;51.994;4.448;2023-06-22T04:04:47;18.68;81.99
71291;DHT22;59073;51.994;4.448;2023-06-22T04:07:13;19.01;81.62
71291;DHT22;59073;51.994;4.448;2023-06-22T04:09:38;19.50;80.87
71291;DHT22;59073;51.994;4.448;2023-06-22T04:12:04;19.83;78.67
71291;DHT22;59073;51.994;4.448;2023-06-22T04:14:29;19.39;78.72
71291;DHT22;59073;51.994;4.448;2023-06-22T04:16:55;19.66;79.10
71291;DHT22;59073;51.994;4.448;2023-06-22T04:19:20;19.81;77.90
71291;DHT22;59073;51.994;4.448;2023-06-22T04:21:46;20.25;76.62
71291;DHT22;59073;51.994;4.448;2023-06-22T04:24:14;20.45;76.10
71291;DHT22;59073;51.994;4.448;2023-06-22T04:26:39;20.63;74.98
71291;DHT22;59073;51.994;4.448;2023-06-22T04:29:07;20.77;74.68
71291;DHT22;59073;51.994;4.448;2023-06-22T04:31:34;20.92;74.43
71291;DHT22;59073;51.994;4.448;2023-06-22T04:34:07;21.47;73.79
71291;DHT22;59073;51.994;4.448;2023-06-22T04:36:38;22.02;71.97
71291;DHT22;59073;51.994;4.448;2023-06-22T04:39:06;22.59;70.65
71291;DHT22;59073;51.994;4.448;2023-06-22T04:41:32;23.11;67.68
71291;DHT22;59073;51.994;4.448;2023-06-22T04:44:18;23.79;66.25
71291;DHT22;59073;51.994;4.448;2023-06-22T04:46:59;24.01;65.17
71291;DHT22;59073;51.994;4.448;2023-06-22T04:49:34;24.67;63.28
71291;DHT22;59073;51.994;4.448;2023-06-22T04:52:06;24.71;63.68
71291;DHT22;59073;51.994;4.448;2023-06-22T04:54:33;24.51;62.94
71291;DHT22;59073;51.994;4.448;2023-06-22T04:57:00;24.41;63.49
71291;DHT22;59073;51.994;4.448;2023-06-22T04:59:27;23.63;65.84
71291;DHT22;59073;51.994;4.448;2023-06-22T05:01:59;23.14;66.76
71291;DHT22;59073;51.994;4.448;2023-06-22T05:04:26;22.94;68.23
71291;DHT22;59073;51.994;4.448;2023-06-22T05:06:54;23.21;67.61
71291;DHT22;59073;51.994;4.448;2023-06-22T05:09:22;23.66;66.34
71291;DHT22;59073;51.994;4.448;2023-06-22T05:11:47;24.45;64.61
71291;DHT22;59073;51.994;4.448;2023-06-22T05:14:13;24.96;63.38
71291;DHT22;59073;51.994;4.448;2023-06-22T05:16:40;24.21;65.23
71291;DHT22;59073;51.994;4.448;2023-06-22T05:19:06;25.16;63.92
71291;DHT22;59073;51.994;4.448;2023-06-22T05:21:31;25.81;60.92
71291;DHT22;59073;51.994;4.448;2023-06-22T05:23:57;25.39;61.27
71291;DHT22;59073;51.994;4.448;2023-06-22T05:26:29;24.50;63.16
71291;DHT22;59073;51.994;4.448;2023-06-22T05:28:55;23.97;65.69
71291;DHT22;59073;51.994;4.448;2023-06-22T05:31:20;23.28;67.73
71291;DHT22;59073;51.994;4.448;2023-06-22T05:33:47;23.10;68.58
71291;DHT22;59073;51.994;4.448;2023-06-22T05:36:13;22.80;69.29
71291;DHT22;59073;51.994;4.448;2023-06-22T05:38:40;22.49;70.56
71291;DHT22;59073;51.994;4.448;2023-06-22T05:41:05;22.49;70.51
71291;DHT22;59073;51.994;4.448;2023-06-22T05:43:31;22.94;69.21
71291;DHT22;59073;51.994;4.448;2023-06-22T05:45:58;23.23;68.51
71291;DHT22;59073;51.994;4.448;2023-06-22T05:48:24;23.07;68.32
71291;DHT22;59073;51.994;4.448;2023-06-22T05:50:49;23.22;68.35
71291;DHT22;59073;51.994;4.448;2023-06-22T05:53:15;23.21;68.75
71291;DHT22;59073;51.994;4.448;2023-06-22T05:55:40;23.19;69.16
71291;DHT22;59073;51.994;4.448;2023-06-22T05:58:06;22.65;71.17
71291;DHT22;59073;51.994;4.448;2023-06-22T06:00:31;22.23;71.39
71291;DHT22;59073;51.994;4.448;2023-06-22T06:02:57;22.74;70.78
71291;DHT22;59073;51.994;4.448;2023-06-22T06:05:28;23.38;68.18
71291;DHT22;59073;51.994;4.448;2023-06-22T06:07:54;23.51;67.55
71291;DHT22;59073;51.994;4.448;2023-06-22T06:10:19;23.61;67.30
71291;DHT22;59073;51.994;4.448;2023-06-22T06:12:44;23.70;66.84
71291;DHT22;59073;51.994;4.448;2023-06-22T06:15:10;23.18;68.35
71291;DHT22;59073;51.994;4.448;2023-06-22T06:17:35;22.61;70.94
71291;DHT22;59073;51.994;4.448;2023-06-22T06:20:01;22.68;70.09
71291;DHT22;59073;51.994;4.448;2023-06-22T06:22:28;22.90;70.34
71291;DHT22;59073;51.994;4.448;2023-06-22T06:24:53;22.03;72.19
71291;DHT22;59073;51.994;4.448;2023-06-22T06:27:19;21.95;72.15
71291;DHT22;59073;51.994;4.448;2023-06-22T06:29:44;22.17;71.23
71291;DHT22;59073;51.994;4.448;2023-06-22T06:32:13;22.24;71.94
71291;DHT22;59073;51.994;4.448;2023-06-22T06:34:39;22.05;73.59
71291;DHT22;59073;51.994;4.448;2023-06-22T06:37:05;22.29;72.70
71291;DHT22;59073;51.994;4.448;2023-06-22T06:39:31;22.30;71.21
71291;DHT22;59073;51.994;4.448;2023-06-22T06:41:56;22.65;71.08
71291;DHT22;59073;51.994;4.448;2023-06-22T06:44:22;22.90;70.27
71291;DHT22;59073;51.994;4.448;2023-06-22T06:46:47;23.41;70.27
71291;DHT22;59073;51.994;4.448;2023-06-22T06:49:13;23.84;68.34
71291;DHT22;59073;51.994;4.448;2023-06-22T06:51:38;24.06;67.55
71291;DHT22;59073;51.994;4.448;2023-06-22T06:54:04;23.97;69.56
71291;DHT22;59073;51.994;4.448;2023-06-22T06:56:29;24.31;67.95
71291;DHT22;59073;51.994;4.448;2023-06-22T06:58:55;24.41;67.82
71291;DHT22;59073;51.994;4.448;2023-06-22T07:01:20;24.81;64.80
71291;DHT22;59073;51.994;4.448;2023-06-22T07:03:46;24.34;65.23
71291;DHT22;59073;51.994;4.448;2023-06-22T07:06:11;24.27;66.96
71291;DHT22;59073;51.994;4.448;2023-06-22T07:08:37;24.18;65.75
71291;DHT22;59073;51.994;4.448;2023-06-22T07:11:02;24.14;64.04
71291;DHT22;59073;51.994;4.448;2023-06-22T07:13:27;23.89;65.48
71291;DHT22;59073;51.994;4.448;2023-06-22T07:15:53;23.72;65.16
71291;DHT22;59073;51.994;4.448;2023-06-22T07:18:18;23.65;66.59
71291;DHT22;59073;51.994;4.448;2023-06-22T07:20:44;23.97;67.30
71291;DHT22;59073;51.994;4.448;2023-06-22T07:23:09;24.00;63.83
71291;DHT22;59073;51.994;4.448;2023-06-22T07:25:35;24.07;64.39
71291;DHT22;59073;51.994;4.448;2023-06-22T07:28:03;24.28;62.97
71291;DHT22;59073;51.994;4.448;2023-06-22T07:30:31;24.31;63.01
71291;DHT22;59073;51.994;4.448;2023-06-22T07:32:57;24.27;61.39
71291;DHT22;59073;51.994;4.448;2023-06-22T07:35:24;24.42;61.26
71291;DHT22;59073;51.994;4.448;2023-06-22T07:37:49;24.60;62.18
71291;DHT22;59073;51.994;4.448;2023-06-22T07:40:15;24.35;61.97
71291;DHT22;59073;51.994;4.448;2023-06-22T07:42:40;24.32;60.11
71291;DHT22;59073;51.994;4.448;2023-06-22T07:45:06;24.45;58.80
71291;DHT22;59073;51.994;4.448;2023-06-22T07:47:34;24.25;59.16
71291;DHT22;59073;51.994;4.448;2023-06-22T07:50:01;24.62;61.13
71291;DHT22;59073;51.994;4.448;2023-06-22T07:52:27;24.41;59.34
71291;DHT22;59073;51.994;4.448;2023-06-22T07:54:53;24.45;61.92
71291;DHT22;59073;51.994;4.448;2023-06-22T07:57:19;24.37;58.37
71291;DHT22;59073;51.994;4.448;2023-06-22T07:59:44;24.42;58.22
71291;DHT22;59073;51.994;4.448;2023-06-22T08:02:10;24.57;58.10
71291;DHT22;59073;51.994;4.448;2023-06-22T08:04:36;24.92;57.13
71291;DHT22;59073;51.994;4.448;2023-06-22T08:07:01;25.02;58.71
71291;DHT22;59073;51.994;4.448;2023-06-22T08:09:31;25.49;54.55
71291;DHT22;59073;51.994;4.448;2023-06-22T08:11:58;25.51;54.50
71291;DHT22;59073;51.994;4.448;2023-06-22T08:14:27;25.33;55.23
71291;DHT22;59073;51.994;4.448;2023-06-22T08:16:52;25.43;53.82
71291;DHT22;59073;51.994;4.448;2023-06-22T08:19:17;25.50;53.61
71291;DHT22;59073;51.994;4.448;2023-06-22T08:21:43;25.34;51.88
71291;DHT22;59073;51.994;4.448;2023-06-22T08:24:09;25.36;53.04
71291;DHT22;59073;51.994;4.448;2023-06-22T08:26:34;25.36;53.37
71291;DHT22;59073;51.994;4.448;2023-06-22T08:29:03;25.57;54.99
71291;DHT22;59073;51.994;4.448;2023-06-22T08:31:28;25.64;52.80
71291;DHT22;59073;51.994;4.448;2023-06-22T08:33:53;25.84;52.58
71291;DHT22;59073;51.994;4.448;2023-06-22T08:36:19;25.56;53.86
71291;DHT22;59073;51.994;4.448;2023-06-22T08:38:44;25.56;52.85
71291;DHT22;59073;51.994;4.448;2023-06-22T08:41:10;25.51;53.79
71291;DHT22;59073;51.994;4.448;2023-06-22T08:43:36;25.67;52.07
71291;DHT22;59073;51.994;4.448;2023-06-22T08:46:01;25.70;53.35
71291;DHT22;59073;51.994;4.448;2023-06-22T08:48:28;26.04;52.32
71291;DHT22;59073;51.994;4.448;2023-06-22T08:50:53;26.11;51.58
71291;DHT22;59073;51.994;4.448;2023-06-22T08:53:19;26.48;51.54
71291;DHT22;59073;51.994;4.448;2023-06-22T08:55:44;26.11;52.37
71291;DHT22;59073;51.994;4.448;2023-06-22T08:58:10;26.28;52.25
71291;DHT22;59073;51.994;4.448;2023-06-22T09:00:36;26.55;52.14
71291;DHT22;59073;51.994;4.448;2023-06-22T09:03:01;26.49;51.99
71291;DHT22;59073;51.994;4.448;2023-06-22T09:05:27;26.53;53.14
71291;DHT22;59073;51.994;4.448;2023-06-22T09:07:52;26.41;52.97
71291;DHT22;59073;51.994;4.448;2023-06-22T09:10:20;26.51;53.30
71291;DHT22;59073;51.994;4.448;2023-06-22T09:12:45;26.48;53.97
71291;DHT22;59073;51.994;4.448;2023-06-22T09:15:11;26.12;56.30
71291;DHT22;59073;51.994;4.448;2023-06-22T09:17:36;26.14;57.57
71291;DHT22;59073;51.994;4.448;2023-06-22T09:20:02;26.41;56.33
71291;DHT22;59073;51.994;4.448;2023-06-22T09:22:31;26.45;57.44
71291;DHT22;59073;51.994;4.448;2023-06-22T09:24:58;26.15;54.75
71291;DHT22;59073;51.994;4.448;2023-06-22T09:27:25;26.20;55.19
71291;DHT22;59073;51.994;4.448;2023-06-22T09:29:50;26.21;57.64
71291;DHT22;59073;51.994;4.448;2023-06-22T09:32:15;26.36;55.19
71291;DHT22;59073;51.994;4.448;2023-06-22T09:34:41;26.20;54.66
71291;DHT22;59073;51.994;4.448;2023-06-22T09:37:06;26.49;56.03
71291;DHT22;59073;51.994;4.448;2023-06-22T09:39:32;26.35;53.47
71291;DHT22;59073;51.994;4.448;2023-06-22T09:41:59;26.01;55.15
71291;DHT22;59073;51.994;4.448;2023-06-22T09:44:25;25.98;55.84
71291;DHT22;59073;51.994;4.448;2023-06-22T09:46:50;25.78;55.54
71291;DHT22;59073;51.994;4.448;2023-06-22T09:49:16;25.69;57.90
71291;DHT22;59073;51.994;4.448;2023-06-22T09:51:41;25.80;56.80
71291;DHT22;59073;51.994;4.448;2023-06-22T09:54:06;25.85;56.68
71291;DHT22;59073;51.994;4.448;2023-06-22T09:56:32;26.11;57.97
71291;DHT22;59073;51.994;4.448;2023-06-22T09:58:57;26.08;57.73
71291;DHT22;59073;51.994;4.448;2023-06-22T10:01:23;26.00;57.18
71291;DHT22;59073;51.994;4.448;2023-06-22T10:03:48;25.73;57.33
71291;DHT22;59073;51.994;4.448;2023-06-22T10:06:14;25.64;54.23
71291;DHT22;59073;51.994;4.448;2023-06-22T10:08:40;25.87;54.65
71291;DHT22;59073;51.994;4.448;2023-06-22T10:11:06;25.69;57.34
71291;DHT22;59073;51.994;4.448;2023-06-22T10:13:31;25.40;57.29
71291;DHT22;59073;51.994;4.448;2023-06-22T10:15:57;25.29;58.93
71291;DHT22;59073;51.994;4.448;2023-06-22T10:18:22;24.92;58.98
71291;DHT22;59073;51.994;4.448;2023-06-22T10:20:50;25.05;57.54
71291;DHT22;59073;51.994;4.448;2023-06-22T10:23:17;25.27;57.23
71291;DHT22;59073;51.994;4.448;2023-06-22T10:25:43;25.33;55.61
71291;DHT22;59073;51.994;4.448;2023-06-22T10:28:08;25.54;56.45
71291;DHT22;59073;51.994;4.448;2023-06-22T10:30:33;25.82;56.80
71291;DHT22;59073;51.994;4.448;2023-06-22T10:32:59;25.88;56.61
71291;DHT22;59073;51.994;4.448;2023-06-22T10:35:24;25.73;57.54
71291;DHT22;59073;51.994;4.448;2023-06-22T10:37:50;25.59;56.52
71291;DHT22;59073;51.994;4.448;2023-06-22T10:40:17;25.49;56.89
71291;DHT22;59073;51.994;4.448;2023-06-22T10:42:44;25.49;56.84
71291;DHT22;59073;51.994;4.448;2023-06-22T10:45:10;25.46;57.44
71291;DHT22;59073;51.994;4.448;2023-06-22T10:47:36;25.64;57.47
71291;DHT22;59073;51.994;4.448;2023-06-22T10:50:02;25.36;54.28
71291;DHT22;59073;51.994;4.448;2023-06-22T10:52:28;25.20;53.33
71291;DHT22;59073;51.994;4.448;2023-06-22T10:54:54;25.32;54.80
71291;DHT22;59073;51.994;4.448;2023-06-22T10:57:22;25.09;54.33
71291;DHT22;59073;51.994;4.448;2023-06-22T10:59:47;25.27;54.90
71291;DHT22;59073;51.994;4.448;2023-06-22T11:02:13;24.99;56.41
71291;DHT22;59073;51.994;4.448;2023-06-22T11:04:39;24.99;56.81
71291;DHT22;59073;51.994;4.448;2023-06-22T11:07:04;25.16;57.85
71291;DHT22;59073;51.994;4.448;2023-06-22T11:09:30;25.03;57.58
71291;DHT22;59073;51.994;4.448;2023-06-22T11:11:56;25.34;53.67
71291;DHT22;59073;51.994;4.448;2023-06-22T11:14:23;25.06;55.05
71291;DHT22;59073;51.994;4.448;2023-06-22T11:16:49;25.16;56.23
71291;DHT22;59073;51.994;4.448;2023-06-22T11:19:14;24.89;57.64
71291;DHT22;59073;51.994;4.448;2023-06-22T11:21:40;24.55;59.52
71291;DHT22;59073;51.994;4.448;2023-06-22T11:24:06;24.61;58.52
71291;DHT22;59073;51.994;4.448;2023-06-22T11:26:31;25.05;57.83
71291;DHT22;59073;51.994;4.448;2023-06-22T11:28:57;25.18;55.27
71291;DHT22;59073;51.994;4.448;2023-06-22T11:31:23;25.36;55.76
71291;DHT22;59073;51.994;4.448;2023-06-22T11:33:49;25.08;56.86
71291;DHT22;59073;51.994;4.448;2023-06-22T11:36:15;24.96;58.15
71291;DHT22;59073;51.994;4.448;2023-06-22T11:38:42;24.76;56.86
71291;DHT22;59073;51.994;4.448;2023-06-22T11:41:08;24.55;58.58
71291;DHT22;59073;51.994;4.448;2023-06-22T11:43:34;24.58;59.67
71291;DHT22;59073;51.994;4.448;2023-06-22T11:46:01;24.73;60.98
71291;DHT22;59073;51.994;4.448;2023-06-22T11:48:27;24.91;59.71
71291;DHT22;59073;51.994;4.448;2023-06-22T11:50:53;25.24;59.22
71291;DHT22;59073;51.994;4.448;2023-06-22T11:53:20;24.81;59.67
71291;DHT22;59073;51.994;4.448;2023-06-22T11:55:45;24.88;60.43
71291;DHT22;59073;51.994;4.448;2023-06-22T11:58:11;25.29;60.33
71291;DHT22;59073;51.994;4.448;2023-06-22T12:00:37;25.30;59.75
71291;DHT22;59073;51.994;4.448;2023-06-22T12:03:03;25.10;60.69
71291;DHT22;59073;51.994;4.448;2023-06-22T12:05:29;25.03;62.50
71291;DHT22;59073;51.994;4.448;2023-06-22T12:07:55;25.05;62.02
71291;DHT22;59073;51.994;4.448;2023-06-22T12:10:22;24.99;63.58
71291;DHT22;59073;51.994;4.448;2023-06-22T12:12:47;24.98;64.52
71291;DHT22;59073;51.994;4.448;2023-06-22T12:15:13;24.86;63.94
71291;DHT22;59073;51.994;4.448;2023-06-22T12:17:39;24.86;65.25
71291;DHT22;59073;51.994;4.448;2023-06-22T12:20:05;24.79;64.71
71291;DHT22;59073;51.994;4.448;2023-06-22T12:22:32;24.71;64.52
71291;DHT22;59073;51.994;4.448;2023-06-22T12:24:58;24.96;64.95
71291;DHT22;59073;51.994;4.448;2023-06-22T12:27:23;24.86;64.62
71291;DHT22;59073;51.994;4.448;2023-06-22T12:29:48;24.83;65.08
71291;DHT22;59073;51.994;4.448;2023-06-22T12:32:14;24.72;65.75
71291;DHT22;59073;51.994;4.448;2023-06-22T12:34:43;24.72;65.84
71291;DHT22;59073;51.994;4.448;2023-06-22T12:37:09;24.76;65.50
71291;DHT22;59073;51.994;4.448;2023-06-22T12:39:35;24.57;65.45
71291;DHT22;59073;51.994;4.448;2023-06-22T12:42:01;24.69;65.64
71291;DHT22;59073;51.994;4.448;2023-06-22T12:44:26;24.83;65.18
71291;DHT22;59073;51.994;4.448;2023-06-22T12:46:52;24.91;65.29
71291;DHT22;59073;51.994;4.448;2023-06-22T12:49:18;24.83;65.10
71291;DHT22;59073;51.994;4.448;2023-06-22T12:51:44;24.82;64.47
71291;DHT22;59073;51.994;4.448;2023-06-22T12:54:11;24.51;65.11
71291;DHT22;59073;51.994;4.448;2023-06-22T12:56:37;24.67;66.04
71291;DHT22;59073;51.994;4.448;2023-06-22T12:59:05;24.50;65.36
71291;DHT22;59073;51.994;4.448;2023-06-22T13:01:31;24.41;65.14
71291;DHT22;59073;51.994;4.448;2023-06-22T13:03:58;24.50;65.46
71291;DHT22;59073;51.994;4.448;2023-06-22T13:06:23;24.65;67.11
71291;DHT22;59073;51.994;4.448;2023-06-22T13:08:49;24.81;67.42
71291;DHT22;59073;51.994;4.448;2023-06-22T13:11:14;24.67;68.21
71291;DHT22;59073;51.994;4.448;2023-06-22T13:13:40;24.58;68.80
71291;DHT22;59073;51.994;4.448;2023-06-22T13:16:06;24.38;68.81
71291;DHT22;59073;51.994;4.448;2023-06-22T13:18:31;24.35;69.12
71291;DHT22;59073;51.994;4.448;2023-06-22T13:20:58;24.31;68.68
71291;DHT22;59073;51.994;4.448;2023-06-22T13:23:25;24.23;68.86
71291;DHT22;59073;51.994;4.448;2023-06-22T13:25:50;24.14;69.87
71291;DHT22;59073;51.994;4.448;2023-06-22T13:28:16;24.16;69.33
71291;DHT22;59073;51.994;4.448;2023-06-22T13:30:42;24.24;69.26
71291;DHT22;59073;51.994;4.448;2023-06-22T13:33:10;24.06;69.23
71291;DHT22;59073;51.994;4.448;2023-06-22T13:35:36;23.94;69.59
71291;DHT22;59073;51.994;4.448;2023-06-22T13:38:02;24.06;69.81
71291;DHT22;59073;51.994;4.448;2023-06-22T13:40:27;24.11;69.67
71291;DHT22;59073;51.994;4.448;2023-06-22T13:42:52;24.00;69.76
71291;DHT22;59073;51.994;4.448;2023-06-22T13:45:18;24.10;70.05
71291;DHT22;59073;51.994;4.448;2023-06-22T13:47:45;23.90;69.94
71291;DHT22;59073;51.994;4.448;2023-06-22T13:50:10;23.69;70.69
71291;DHT22;59073;51.994;4.448;2023-06-22T13:52:38;23.38;70.70
71291;DHT22;59073;51.994;4.448;2023-06-22T13:55:04;23.46;71.58
71291;DHT22;59073;51.994;4.448;2023-06-22T13:57:30;23.51;72.45
71291;DHT22;59073;51.994;4.448;2023-06-22T13:59:55;23.56;71.47
71291;DHT22;59073;51.994;4.448;2023-06-22T14:02:20;23.63;70.52
71291;DHT22;59073;51.994;4.448;2023-06-22T14:04:46;23.72;70.75
71291;DHT22;59073;51.994;4.448;2023-06-22T14:07:11;23.69;70.82
71291;DHT22;59073;51.994;4.448;2023-06-22T14:09:37;23.48;71.32
71291;DHT22;59073;51.994;4.448;2023-06-22T14:12:04;23.29;72.67
71291;DHT22;59073;51.994;4.448;2023-06-22T14:14:30;23.25;72.36
71291;DHT22;59073;51.994;4.448;2023-06-22T14:16:56;23.37;72.70
71291;DHT22;59073;51.994;4.448;2023-06-22T14:19:21;23.42;73.21
71291;DHT22;59073;51.994;4.448;2023-06-22T14:21:47;23.39;73.68
71291;DHT22;59073;51.994;4.448;2023-06-22T14:24:12;23.42;73.69
71291;DHT22;59073;51.994;4.448;2023-06-22T14:26:37;23.61;72.71
71291;DHT22;59073;51.994;4.448;2023-06-22T14:29:03;23.62;73.03
71291;DHT22;59073;51.994;4.448;2023-06-22T14:31:29;23.49;73.87
71291;DHT22;59073;51.994;4.448;2023-06-22T14:33:54;23.37;73.74
71291;DHT22;59073;51.994;4.448;2023-06-22T14:36:20;23.38;74.01
71291;DHT22;59073;51.994;4.448;2023-06-22T14:38:45;23.21;74.40
71291;DHT22;59073;51.994;4.448;2023-06-22T14:41:11;23.11;75.25
71291;DHT22;59073;51.994;4.448;2023-06-22T14:43:36;23.16;76.24
71291;DHT22;59073;51.994;4.448;2023-06-22T14:46:02;23.10;76.22
71291;DHT22;59073;51.994;4.448;2023-06-22T14:48:27;23.21;75.10
71291;DHT22;59073;51.994;4.448;2023-06-22T14:50:53;23.29;74.94
71291;DHT22;59073;51.994;4.448;2023-06-22T14:53:19;23.16;76.77
71291;DHT22;59073;51.994;4.448;2023-06-22T14:55:44;23.19;77.42
71291;DHT22;59073;51.994;4.448;2023-06-22T14:58:10;22.87;78.17
71291;DHT22;59073;51.994;4.448;2023-06-22T15:00:36;22.73;78.31
71291;DHT22;59073;51.994;4.448;2023-06-22T15:03:01;22.75;78.44
71291;DHT22;59073;51.994;4.448;2023-06-22T15:05:27;22.78;78.83
71291;DHT22;59073;51.994;4.448;2023-06-22T15:07:53;22.65;78.72
71291;DHT22;59073;51.994;4.448;2023-06-22T15:10:18;22.78;78.93
71291;DHT22;59073;51.994;4.448;2023-06-22T15:12:44;22.84;79.45
71291;DHT22;59073;51.994;4.448;2023-06-22T15:15:10;22.90;79.81
71291;DHT22;59073;51.994;4.448;2023-06-22T15:17:35;22.84;80.31
71291;DHT22;59073;51.994;4.448;2023-06-22T15:20:02;22.83;79.67
71291;DHT22;59073;51.994;4.448;2023-06-22T15:22:30;22.46;81.14
71291;DHT22;59073;51.994;4.448;2023-06-22T15:24:56;22.10;79.88
71291;DHT22;59073;51.994;4.448;2023-06-22T15:27:24;22.05;80.94
71291;DHT22;59073;51.994;4.448;2023-06-22T15:29:49;22.06;80.68
71291;DHT22;59073;51.994;4.448;2023-06-22T15:32:15;22.23;80.16
71291;DHT22;59073;51.994;4.448;2023-06-22T15:34:40;22.36;79.84